createdAt,value
2018-03-19T00:00:42.343Z,7.80
2018-03-19T00:03:10.728Z,5.80
2018-03-19T00:05:39.116Z,6.47
2018-03-19T00:08:07.557Z,6.93
2018-03-19T00:10:35.976Z,6.28
2018-03-19T00:13:04.516Z,5.95
2018-03-19T00:15:32.986Z,5.85
2018-03-19T00:18:01.471Z,4.75
2018-03-19T00:20:29.884Z,5.43
2018-03-19T00:22:58.451Z,4.10
2018-03-19T00:25:26.854Z,6.53
2018-03-19T00:27:55.381Z,5.87
2018-03-19T00:30:23.848Z,6.32
2018-03-19T00:32:52.248Z,4.62
2018-03-19T00:35:20.676Z,5.80
2018-03-19T00:37:49.143Z,6.05
2018-03-19T00:40:17.552Z,5.65
2018-03-19T00:42:45.985Z,6.55
2018-03-19T00:45:14.455Z,5.80
2018-03-19T00:47:42.901Z,6.90
2018-03-19T00:50:11.319Z,5.90
2018-03-19T00:52:39.703Z,5.93
2018-03-19T00:55:08.114Z,6.50
2018-03-19T00:57:36.575Z,5.82
2018-03-19T01:00:04.987Z,7.12
2018-03-19T01:02:33.403Z,6.00
2018-03-19T01:05:02.057Z,6.40
2018-03-19T01:07:30.464Z,6.93
2018-03-19T01:09:58.880Z,7.32
2018-03-19T01:12:27.436Z,4.57
2018-03-19T01:14:55.853Z,6.72
2018-03-19T01:17:24.274Z,7.57
2018-03-19T01:19:52.737Z,6.30
2018-03-19T01:22:21.133Z,6.80
2018-03-19T01:24:49.799Z,6.53
2018-03-19T01:27:18.200Z,6.32
2018-03-19T01:29:46.676Z,7.28
2018-03-19T01:32:15.072Z,5.97
2018-03-19T01:34:43.472Z,6.90
2018-03-19T01:37:11.928Z,5.93
2018-03-19T01:39:40.327Z,7.30
2018-03-19T01:42:08.711Z,6.70
2018-03-19T01:44:37.190Z,5.95
2018-03-19T01:47:05.599Z,6.03
2018-03-19T01:49:34.012Z,6.30
2018-03-19T01:52:02.628Z,5.43
2018-03-19T01:54:31.019Z,6.47
2018-03-19T01:56:59.427Z,7.15
2018-03-19T01:59:28.001Z,7.20
2018-03-19T02:01:56.418Z,7.30
2018-03-19T02:04:24.887Z,6.75
2018-03-19T02:06:53.321Z,6.95
2018-03-19T02:09:21.788Z,6.40
2018-03-19T02:11:50.182Z,6.80
2018-03-19T02:14:18.723Z,7.18
2018-03-19T02:16:47.132Z,6.53
2018-03-19T02:19:15.563Z,6.87
2018-03-19T02:21:43.952Z,6.20
2018-03-19T02:24:12.339Z,5.93
2018-03-19T02:26:40.828Z,6.50
2018-03-19T02:29:09.235Z,7.32
2018-03-19T02:31:37.711Z,4.87
2018-03-19T02:34:06.170Z,6.70
2018-03-19T02:36:34.564Z,6.62
2018-03-19T02:39:03.026Z,6.80
2018-03-19T02:41:31.451Z,7.28
2018-03-19T02:43:59.873Z,7.18
2018-03-19T02:46:28.349Z,7.07
2018-03-19T02:48:56.749Z,6.53
2018-03-19T02:51:25.173Z,7.20
2018-03-19T02:53:53.619Z,5.72
2018-03-19T02:56:22.053Z,7.47
2018-03-19T02:58:50.444Z,6.85
2018-03-19T03:01:18.899Z,6.22
2018-03-19T03:03:47.318Z,4.93
2018-03-19T03:06:15.774Z,6.95
2018-03-19T03:08:44.170Z,6.40
2018-03-19T03:11:12.562Z,6.37
2018-03-19T03:13:41.232Z,6.22
2018-03-19T03:16:09.704Z,6.62
2018-03-19T03:18:38.100Z,7.10
2018-03-19T03:21:06.514Z,5.90
2018-03-19T03:23:34.933Z,5.80
2018-03-19T03:26:03.395Z,6.15
2018-03-19T03:28:31.788Z,6.72
2018-03-19T03:31:00.189Z,5.47
2018-03-19T03:33:28.677Z,6.97
2018-03-19T03:35:57.073Z,5.87
2018-03-19T03:38:25.557Z,6.87
2018-03-19T03:40:53.961Z,6.37
2018-03-19T03:43:22.360Z,8.18
2018-03-19T03:45:50.766Z,6.57
2018-03-19T03:48:19.163Z,6.70
2018-03-19T03:50:47.691Z,7.68
2018-03-19T03:53:16.088Z,7.72
2018-03-19T03:55:44.564Z,7.50
2018-03-19T03:58:12.966Z,7.22
2018-03-19T04:00:41.435Z,7.50
2018-03-19T04:03:09.819Z,7.43
2018-03-19T04:05:38.268Z,7.32
2018-03-19T04:08:06.653Z,8.15
2018-03-19T04:10:35.046Z,7.18
2018-03-19T04:13:03.456Z,7.97
2018-03-19T04:15:31.839Z,6.60
2018-03-19T04:18:00.636Z,7.47
2018-03-19T04:20:29.055Z,6.35
2018-03-19T04:22:57.454Z,7.20
2018-03-19T04:25:25.868Z,5.95
2018-03-19T04:27:54.322Z,6.95
2018-03-19T04:30:22.815Z,7.57
2018-03-19T04:32:51.209Z,7.15
2018-03-19T04:35:19.614Z,7.60
2018-03-19T04:37:48.017Z,6.10
2018-03-19T04:40:16.415Z,7.37
2018-03-19T04:42:44.863Z,7.40
2018-03-19T04:45:13.269Z,7.30
2018-03-19T04:47:41.650Z,7.53
2018-03-19T04:50:10.042Z,5.03
2018-03-19T04:52:38.484Z,7.15
2018-03-19T04:55:07.551Z,6.90
2018-03-19T04:57:35.946Z,8.23
2018-03-19T05:00:04.449Z,7.12
2018-03-19T05:02:32.852Z,7.75
2018-03-19T05:05:01.232Z,7.37
2018-03-19T05:07:29.688Z,8.13
2018-03-19T05:09:58.086Z,6.85
2018-03-19T05:12:26.497Z,6.95
2018-03-19T05:14:54.917Z,6.62
2018-03-19T05:17:23.331Z,7.55
2018-03-19T05:19:51.791Z,7.15
2018-03-19T05:22:20.197Z,6.68
2018-03-19T05:24:48.600Z,7.65
2018-03-19T05:27:17.004Z,6.97
2018-03-19T05:29:45.424Z,6.78
2018-03-19T05:32:13.875Z,6.70
2018-03-19T05:34:42.327Z,5.10
2018-03-19T05:37:10.750Z,7.90
2018-03-19T05:39:39.161Z,7.60
2018-03-19T05:42:07.548Z,6.50
2018-03-19T05:44:35.986Z,4.75
2018-03-19T05:47:04.376Z,6.80
2018-03-19T05:49:32.828Z,6.30
2018-03-19T05:52:01.220Z,7.40
2018-03-19T05:54:29.679Z,5.70
2018-03-19T05:56:58.088Z,10.18
2018-03-19T05:59:26.518Z,7.50
2018-03-19T06:01:54.922Z,7.60
2018-03-19T06:04:23.310Z,5.32
2018-03-19T06:06:51.819Z,6.75
2018-03-19T06:09:20.335Z,8.07
2018-03-19T06:11:48.743Z,7.32
2018-03-19T06:14:17.157Z,7.25
2018-03-19T06:16:45.539Z,7.12
2018-03-19T06:19:14.942Z,7.65
2018-03-19T06:21:43.357Z,5.75
2018-03-19T06:24:11.787Z,5.75
2018-03-19T06:26:40.348Z,6.82
2018-03-19T06:29:09.085Z,6.45
2018-03-19T06:31:37.645Z,7.15
2018-03-19T06:34:06.091Z,8.13
2018-03-19T06:36:34.592Z,6.25
2018-03-19T06:39:03.051Z,7.03
2018-03-19T06:41:31.489Z,7.57
2018-03-19T06:44:00.029Z,8.38
2018-03-19T06:46:28.463Z,6.75
2018-03-19T06:48:56.872Z,6.80
2018-03-19T06:51:25.286Z,6.87
2018-03-19T06:53:53.685Z,6.47
2018-03-19T06:56:22.170Z,7.12
2018-03-19T06:58:50.572Z,7.35
2018-03-19T07:01:18.986Z,7.35
2018-03-19T07:03:47.477Z,6.20
2018-03-19T07:06:15.985Z,7.80
2018-03-19T07:08:44.361Z,7.12
2018-03-19T07:11:12.760Z,7.35
2018-03-19T07:13:41.220Z,7.80
2018-03-19T07:16:09.673Z,7.30
2018-03-19T07:18:38.111Z,5.93
2018-03-19T07:21:06.513Z,8.05
2018-03-19T07:23:35.060Z,6.50
2018-03-19T07:26:03.485Z,8.15
2018-03-19T07:28:31.887Z,7.78
2018-03-19T07:31:00.294Z,7.68
2018-03-19T07:33:28.703Z,8.65
2018-03-19T07:35:57.421Z,6.97
2018-03-19T07:38:25.851Z,8.40
2018-03-19T07:40:54.309Z,8.20
2018-03-19T07:43:22.771Z,8.15
2018-03-19T07:45:51.223Z,7.60
2018-03-19T07:48:19.651Z,7.65
2018-03-19T07:50:48.088Z,6.47
2018-03-19T07:53:16.527Z,8.43
2018-03-19T07:55:45.013Z,7.05
2018-03-19T07:58:13.496Z,6.70
2018-03-19T08:00:41.897Z,8.23
2018-03-19T08:03:10.431Z,6.40
2018-03-19T08:05:38.981Z,6.62
2018-03-19T08:08:07.526Z,7.25
2018-03-19T08:10:36.031Z,8.18
2018-03-19T08:13:04.469Z,7.68
2018-03-19T08:15:32.923Z,7.45
2018-03-19T08:18:01.329Z,7.78
2018-03-19T08:20:29.808Z,6.55
2018-03-19T08:22:58.202Z,8.15
2018-03-19T08:25:26.633Z,7.00
2018-03-19T08:27:55.074Z,7.55
2018-03-19T08:30:23.480Z,7.50
2018-03-19T08:32:52.064Z,7.97
2018-03-19T08:35:20.606Z,7.95
2018-03-19T08:37:48.996Z,7.90
2018-03-19T08:40:17.388Z,7.82
2018-03-19T08:42:45.815Z,8.07
2018-03-19T08:45:14.375Z,7.60
2018-03-19T08:47:42.872Z,9.23
2018-03-19T08:50:11.290Z,7.85
2018-03-19T08:52:39.711Z,7.15
2018-03-19T08:55:08.116Z,7.30
2018-03-19T08:57:36.516Z,7.03
2018-03-19T09:00:05.418Z,7.53
2018-03-19T09:02:34.183Z,7.53
2018-03-19T09:05:02.592Z,8.25
2018-03-19T09:07:30.992Z,7.57
2018-03-19T09:09:59.396Z,8.40
2018-03-19T09:12:27.805Z,7.60
2018-03-19T09:14:56.255Z,7.65
2018-03-19T09:17:24.716Z,7.33
2018-03-19T09:19:53.161Z,7.53
2018-03-19T09:22:21.550Z,8.50
2018-03-19T09:24:49.936Z,7.50
2018-03-19T09:27:18.402Z,7.33
2018-03-19T09:29:46.804Z,8.20
2018-03-19T09:32:15.224Z,8.50
2018-03-19T09:34:43.639Z,8.60
2018-03-19T09:37:12.072Z,8.63
2018-03-19T09:39:40.546Z,7.60
2018-03-19T09:42:09.029Z,8.37
2018-03-19T09:44:37.432Z,9.50
2018-03-19T09:47:05.862Z,8.90
2018-03-19T09:49:34.275Z,8.10
2018-03-19T09:52:02.735Z,8.43
2018-03-19T09:54:31.152Z,7.43
2018-03-19T09:56:59.535Z,7.33
2018-03-19T09:59:27.968Z,11.57
2018-03-19T10:01:56.367Z,9.03
2018-03-19T10:04:24.834Z,8.10
2018-03-19T10:06:53.234Z,8.67
2018-03-19T10:09:21.637Z,8.50
2018-03-19T10:11:50.067Z,8.60
2018-03-19T10:14:18.486Z,8.90
2018-03-19T10:16:47.251Z,8.43
2018-03-19T10:19:15.717Z,7.23
2018-03-19T10:21:44.178Z,8.73
2018-03-19T10:24:12.577Z,8.00
2018-03-19T10:26:40.990Z,7.50
2018-03-19T10:29:09.443Z,7.23
2018-03-19T10:31:38.008Z,7.40
2018-03-19T10:34:06.513Z,7.70
2018-03-19T10:36:34.921Z,7.87
2018-03-19T10:39:03.356Z,6.40
2018-03-19T10:41:31.929Z,7.10
2018-03-19T10:44:00.347Z,7.00
2018-03-19T10:46:28.779Z,7.07
2018-03-19T10:48:57.192Z,7.30
2018-03-19T10:51:25.616Z,8.50
2018-03-19T10:53:54.099Z,8.97
2018-03-19T10:56:22.490Z,7.10
2018-03-19T10:58:50.904Z,7.73
2018-03-19T11:04:23.619Z,7.03
2018-03-19T11:06:52.006Z,7.10
2018-03-19T11:09:26.185Z,7.03
2018-03-19T11:11:54.675Z,7.50
2018-03-19T11:14:23.071Z,7.17
2018-03-19T11:16:51.509Z,6.20
2018-03-19T11:19:19.904Z,7.60
2018-03-19T11:21:48.332Z,7.50
2018-03-19T11:24:16.802Z,6.70
2018-03-19T11:26:45.252Z,7.17
2018-03-19T11:29:13.674Z,7.70
2018-03-19T11:31:42.092Z,7.47
2018-03-19T11:34:10.556Z,7.20
2018-03-19T11:36:38.967Z,7.40
2018-03-19T11:39:07.368Z,6.67
2018-03-19T11:41:35.797Z,7.10
2018-03-19T11:44:04.177Z,7.77
2018-03-19T11:46:32.587Z,7.50
2018-03-19T11:49:00.995Z,6.90
2018-03-19T11:51:29.453Z,7.10
2018-03-19T11:53:57.860Z,8.30
2018-03-19T11:56:26.280Z,6.40
2018-03-19T11:58:54.775Z,6.50
2018-03-19T12:01:23.348Z,6.40
2018-03-19T12:03:51.812Z,6.37
2018-03-19T12:06:20.276Z,6.63
2018-03-19T12:08:48.738Z,6.43
2018-03-19T12:11:17.147Z,7.20
2018-03-19T12:13:45.619Z,7.30
2018-03-19T12:16:14.151Z,6.33
2018-03-19T12:18:42.712Z,6.90
2018-03-19T12:21:11.179Z,6.67
2018-03-19T12:23:39.641Z,5.70
2018-03-19T12:26:08.105Z,6.17
2018-03-19T12:28:36.586Z,6.10
2018-03-19T12:31:05.042Z,6.10
2018-03-19T12:33:33.550Z,6.07
2018-03-19T12:36:02.029Z,6.33
2018-03-19T12:38:30.530Z,6.00
2018-03-19T12:40:59.024Z,5.30
2018-03-19T12:49:34.482Z,5.13
2018-03-19T12:52:02.896Z,8.02
2018-03-19T13:00:42.182Z,5.25
2018-03-19T13:03:10.598Z,5.40
2018-03-19T13:05:39.032Z,5.10
2018-03-19T13:08:07.514Z,5.50
2018-03-19T13:10:35.959Z,5.53
2018-03-19T13:13:04.436Z,6.00
2018-03-19T13:15:32.868Z,5.60
2018-03-19T13:18:01.421Z,5.97
2018-03-19T13:20:30.133Z,5.47
2018-03-19T13:22:59.507Z,4.80
2018-03-19T13:25:28.012Z,4.70
2018-03-19T13:36:24.684Z,5.03
2018-03-19T13:38:56.672Z,4.90
2018-03-19T13:41:25.153Z,6.18
2018-03-19T13:43:53.563Z,5.18
2018-03-19T13:46:22.079Z,4.93
2018-03-19T13:48:50.464Z,5.05
2018-03-19T13:51:18.905Z,5.15
2018-03-19T13:53:48.381Z,4.95
2018-03-19T13:56:16.983Z,4.47
2018-03-19T13:58:45.403Z,5.25
2018-03-19T14:01:14.170Z,5.07
2018-03-19T14:03:42.586Z,5.00
2018-03-19T14:06:11.044Z,4.78
2018-03-19T14:08:39.534Z,4.40
2018-03-19T14:11:07.956Z,5.62
2018-03-19T14:13:36.385Z,5.10
2018-03-19T14:16:04.821Z,4.60
2018-03-19T14:18:33.422Z,4.68
2018-03-19T14:21:01.882Z,4.50
2018-03-19T14:23:30.481Z,4.10
2018-03-19T14:25:58.931Z,4.32
2018-03-19T14:28:27.367Z,4.47
2018-03-19T14:30:55.862Z,5.28
2018-03-19T14:33:24.285Z,5.22
2018-03-19T14:35:52.684Z,5.25
2018-03-19T14:38:21.162Z,6.07
2018-03-19T14:40:49.611Z,5.57
2018-03-19T14:43:18.091Z,5.10
2018-03-19T14:45:50.282Z,5.43
2018-03-19T14:48:19.910Z,6.00
2018-03-19T14:50:49.233Z,6.30
2018-03-19T14:55:55.300Z,6.43
2018-03-19T14:58:28.003Z,6.75
2018-03-19T15:06:04.316Z,6.70
2018-03-19T15:08:32.753Z,7.05
2018-03-19T15:11:01.123Z,7.00
2018-03-19T15:13:29.606Z,7.22
2018-03-19T15:15:58.036Z,9.73
2018-03-19T15:18:26.449Z,6.03
2018-03-19T15:20:54.825Z,6.03
2018-03-19T15:23:23.245Z,6.45
2018-03-19T15:25:52.010Z,6.72
2018-03-19T15:28:20.435Z,6.60
2018-03-19T15:30:48.820Z,6.37
2018-03-19T15:33:17.236Z,6.80
2018-03-19T15:35:45.619Z,6.45
2018-03-19T15:38:14.402Z,6.20
2018-03-19T15:40:42.738Z,7.70
2018-03-19T15:43:11.127Z,6.75
2018-03-19T15:45:39.555Z,7.15
2018-03-19T15:48:07.999Z,6.47
2018-03-19T15:50:36.554Z,7.95
2018-03-19T15:53:05.014Z,7.72
2018-03-19T15:55:33.418Z,6.95
2018-03-19T15:58:01.833Z,6.57
2018-03-19T16:00:30.250Z,7.28
2018-03-19T16:02:58.684Z,7.10
2018-03-19T16:05:27.069Z,7.72
2018-03-19T16:07:55.443Z,6.87
2018-03-19T16:10:23.829Z,6.25
2018-03-19T16:12:52.240Z,6.25
2018-03-19T16:15:20.705Z,7.00
2018-03-19T16:17:49.084Z,7.70
2018-03-19T16:20:17.572Z,6.60
2018-03-19T16:22:45.943Z,6.95
2018-03-19T16:25:14.346Z,6.10
2018-03-19T16:27:42.738Z,6.57
2018-03-19T16:30:11.114Z,6.10
2018-03-19T16:32:39.486Z,6.87
2018-03-19T16:35:07.925Z,7.20
2018-03-19T16:37:36.444Z,6.62
2018-03-19T16:40:04.817Z,6.53
2018-03-19T16:42:33.218Z,6.43
2018-03-19T16:45:01.576Z,5.80
2018-03-19T16:47:29.954Z,6.40
2018-03-19T16:49:58.694Z,6.37
2018-03-19T16:52:27.085Z,6.45
2018-03-19T16:54:55.471Z,5.90
2018-03-19T16:57:23.847Z,6.03
2018-03-19T16:59:52.307Z,6.80
2018-03-19T17:02:20.752Z,5.82
2018-03-19T17:04:49.128Z,6.90
2018-03-19T17:07:17.635Z,7.28
2018-03-19T17:09:45.997Z,6.35
2018-03-19T17:12:14.365Z,6.53
2018-03-19T17:14:42.804Z,6.40
2018-03-19T17:17:11.167Z,6.62
2018-03-19T17:19:39.531Z,6.82
2018-03-19T17:22:07.924Z,5.95
2018-03-19T17:24:36.284Z,6.40
2018-03-19T17:27:04.641Z,5.97
2018-03-19T17:29:33.064Z,6.32
2018-03-19T17:32:01.738Z,5.40
2018-03-19T17:34:30.151Z,6.15
2018-03-19T17:36:58.596Z,6.18
2018-03-19T17:39:26.990Z,5.95
2018-03-19T17:41:55.429Z,5.07
2018-03-19T17:44:23.902Z,5.60
2018-03-19T17:46:52.296Z,5.68
2018-03-19T17:49:20.702Z,5.50
2018-03-19T17:51:49.243Z,5.75
2018-03-19T17:54:17.659Z,5.72
2018-03-19T17:56:46.067Z,7.18
2018-03-19T17:59:14.604Z,4.80
2018-03-19T18:01:42.996Z,5.37
2018-03-19T18:04:11.392Z,5.12
2018-03-19T18:06:39.796Z,5.30
2018-03-19T18:09:08.285Z,4.70
2018-03-19T18:11:36.721Z,5.00
2018-03-19T18:14:05.192Z,5.07
2018-03-19T18:16:33.689Z,5.20
2018-03-19T18:19:02.101Z,6.10
2018-03-19T18:21:30.573Z,7.60
2018-03-19T18:23:59.037Z,5.07
2018-03-19T18:26:27.505Z,5.55
2018-03-19T18:28:55.910Z,6.03
2018-03-19T18:31:24.321Z,5.65
2018-03-19T18:33:52.717Z,6.07
2018-03-19T18:36:21.167Z,5.20
2018-03-19T18:38:49.633Z,4.20
2018-03-19T18:41:18.044Z,5.30
2018-03-19T18:43:46.436Z,4.97
2018-03-19T18:46:14.824Z,5.07
2018-03-19T18:48:43.307Z,4.53
2018-03-19T18:51:11.696Z,6.47
2018-03-19T18:53:40.247Z,5.35
2018-03-19T18:56:08.700Z,5.60
2018-03-19T18:58:37.204Z,5.07
2018-03-19T19:01:05.618Z,5.32
2018-03-19T19:03:34.032Z,5.60
2018-03-19T19:06:02.582Z,4.37
2018-03-19T19:08:30.984Z,5.12
2018-03-19T19:10:59.384Z,4.50
2018-03-19T19:13:28.079Z,5.15
2018-03-19T19:15:56.580Z,5.00
2018-03-19T19:18:25.076Z,5.55
2018-03-19T19:20:53.667Z,5.15
2018-03-19T19:23:22.081Z,5.70
2018-03-19T19:25:50.483Z,4.68
2018-03-19T19:28:18.906Z,5.57
2018-03-19T19:30:48.047Z,4.80
2018-03-19T19:33:16.452Z,6.35
2018-03-19T19:35:44.863Z,5.50
2018-03-19T19:38:13.260Z,4.97
2018-03-19T19:40:41.723Z,5.90
2018-03-19T19:43:10.163Z,4.75
2018-03-19T19:45:38.545Z,4.70
2018-03-19T19:48:07.023Z,4.87
2018-03-19T19:50:36.489Z,4.60
2018-03-19T19:53:05.030Z,5.78
2018-03-19T19:55:33.434Z,7.28
2018-03-19T19:58:02.736Z,6.20
2018-03-19T20:00:31.151Z,5.87
2018-03-19T20:02:59.585Z,6.25
2018-03-19T20:05:28.032Z,6.00
2018-03-19T20:07:56.449Z,7.10
2018-03-19T20:10:24.853Z,7.57
2018-03-19T20:12:53.348Z,6.53
2018-03-19T20:15:21.743Z,6.75
2018-03-19T20:17:50.208Z,6.62
2018-03-19T20:20:18.644Z,6.50
2018-03-19T20:22:47.061Z,7.05
2018-03-19T20:25:15.492Z,10.77
2018-03-19T20:27:43.971Z,14.80
2018-03-19T20:30:12.462Z,14.10
2018-03-19T20:32:40.876Z,14.90
2018-03-19T20:35:09.312Z,12.73
2018-03-19T20:37:37.748Z,8.32
2018-03-19T20:40:06.227Z,8.40
2018-03-19T20:42:34.732Z,9.13
2018-03-19T20:45:03.118Z,8.50
2018-03-19T20:47:31.569Z,7.37
2018-03-19T20:49:59.964Z,6.87
2018-03-19T20:52:28.390Z,5.65
2018-03-19T20:54:56.951Z,5.97
2018-03-19T20:57:25.329Z,5.25
2018-03-19T20:59:53.728Z,6.10
2018-03-19T21:02:22.172Z,5.90
2018-03-19T21:04:50.560Z,6.20
2018-03-19T21:07:19.086Z,5.60
2018-03-19T21:09:47.529Z,6.47
2018-03-19T21:12:16.383Z,6.57
2018-03-19T21:14:44.785Z,5.45
2018-03-19T21:17:13.185Z,6.43
2018-03-19T21:19:41.588Z,6.47
2018-03-19T21:22:09.994Z,6.50
2018-03-19T21:24:38.856Z,6.30
2018-03-19T21:27:07.272Z,5.20
2018-03-19T21:29:35.633Z,5.57
2018-03-19T21:32:04.042Z,6.60
2018-03-19T21:34:32.404Z,5.18
2018-03-19T21:37:00.837Z,5.90
2018-03-19T21:39:29.317Z,7.07
2018-03-19T21:41:57.724Z,6.22
2018-03-19T21:44:26.133Z,6.07
2018-03-19T21:46:54.603Z,6.32
2018-03-19T21:49:23.079Z,6.70
2018-03-19T21:51:52.280Z,6.20
2018-03-19T21:54:20.668Z,6.12
2018-03-19T21:56:49.110Z,6.65
2018-03-19T21:59:17.721Z,6.20
2018-03-19T22:01:46.131Z,5.50
2018-03-19T22:04:14.543Z,6.45
2018-03-19T22:06:42.959Z,6.80
2018-03-19T22:09:15.593Z,6.70
2018-03-19T22:11:44.068Z,6.93
2018-03-19T22:14:12.496Z,5.90
2018-03-19T22:16:40.871Z,6.32
2018-03-19T22:19:09.412Z,5.95
2018-03-19T22:21:37.843Z,6.18
2018-03-19T22:24:06.305Z,7.05
2018-03-19T22:26:34.852Z,6.78
2018-03-19T22:29:03.316Z,6.60
2018-03-19T22:31:31.701Z,7.10
2018-03-19T22:34:00.086Z,7.30
2018-03-19T22:36:28.503Z,7.47
2018-03-19T22:38:56.887Z,6.78
2018-03-19T22:41:25.380Z,7.20
2018-03-19T22:43:53.832Z,6.65
2018-03-19T22:46:22.201Z,6.05
2018-03-19T22:48:50.598Z,5.87
2018-03-19T22:51:19.004Z,6.43
2018-03-19T22:53:47.515Z,6.37
2018-03-19T22:56:15.913Z,5.95
2018-03-19T22:58:44.324Z,7.50
2018-03-19T23:01:12.814Z,6.80
2018-03-19T23:03:41.205Z,6.82
2018-03-19T23:06:09.668Z,7.03
2018-03-19T23:08:38.072Z,6.45
2018-03-19T23:11:06.468Z,6.87
2018-03-19T23:13:34.903Z,6.80
2018-03-19T23:16:03.306Z,5.93
2018-03-19T23:18:31.746Z,5.32
2018-03-19T23:21:00.144Z,6.45
2018-03-19T23:23:28.607Z,6.15
2018-03-19T23:25:57.061Z,6.45
2018-03-19T23:28:25.457Z,7.32
2018-03-19T23:30:53.932Z,6.97
2018-03-19T23:33:22.356Z,6.95
2018-03-19T23:35:50.932Z,6.72
2018-03-19T23:38:19.368Z,5.78
2018-03-19T23:40:47.751Z,6.78
2018-03-19T23:43:16.163Z,6.22
2018-03-19T23:45:44.593Z,6.45
2018-03-19T23:48:13.079Z,6.10
2018-03-19T23:50:41.471Z,5.80
2018-03-19T23:53:09.908Z,6.68
2018-03-19T23:55:38.324Z,5.53
2018-03-19T23:58:06.784Z,5.87
